createdAt,value
2018-11-12T00:01:48.191Z,2.10
2018-11-12T00:04:16.426Z,2.20
2018-11-12T00:06:44.928Z,2.30
2018-11-12T00:09:13.142Z,2.70
2018-11-12T00:11:41.383Z,1.93
2018-11-12T00:14:10.129Z,1.77
2018-11-12T00:16:38.405Z,2.60
2018-11-12T00:19:06.843Z,2.77
2018-11-12T00:21:35.141Z,2.90
2018-11-12T00:24:03.376Z,2.70
2018-11-12T00:26:31.679Z,3.00
2018-11-12T00:28:59.933Z,3.40
2018-11-12T00:31:28.167Z,3.00
2018-11-12T00:33:56.431Z,3.50
2018-11-12T00:36:24.671Z,3.50
2018-11-12T00:38:52.923Z,4.37
2018-11-12T00:41:21.233Z,4.50
2018-11-12T00:43:49.495Z,4.33
2018-11-12T00:46:17.724Z,4.00
2018-11-12T00:48:45.958Z,4.53
2018-11-12T00:51:14.178Z,5.20
2018-11-12T00:53:42.434Z,4.83
2018-11-12T00:56:10.814Z,4.10
2018-11-12T00:58:39.039Z,3.70
2018-11-12T01:01:08.681Z,3.70
2018-11-12T01:03:36.919Z,3.73
2018-11-12T01:06:05.429Z,4.07
2018-11-12T01:08:33.671Z,4.17
2018-11-12T01:11:01.904Z,3.87
2018-11-12T01:13:38.453Z,3.67
2018-11-12T01:16:07.188Z,3.87
2018-11-12T01:18:35.354Z,3.57
2018-11-12T01:21:03.620Z,3.70
2018-11-12T01:23:33.999Z,4.27
2018-11-12T01:26:02.287Z,3.60
2018-11-12T01:28:30.522Z,4.20
2018-11-12T01:31:03.674Z,3.90
2018-11-12T01:33:32.438Z,3.57
2018-11-12T01:36:02.853Z,4.00
2018-11-12T01:38:31.243Z,3.70
2018-11-12T01:40:59.529Z,3.57
2018-11-12T01:43:27.790Z,3.57
2018-11-12T01:46:03.944Z,3.73
2018-11-12T01:48:32.158Z,4.57
2018-11-12T01:51:00.378Z,4.30
2018-11-12T01:53:35.354Z,4.37
2018-11-12T01:56:03.610Z,4.07
2018-11-12T01:58:31.846Z,4.50
2018-11-12T02:01:00.089Z,3.30
2018-11-12T02:03:28.310Z,4.10
2018-11-12T02:05:56.553Z,3.83
2018-11-12T02:08:24.778Z,3.63
2018-11-12T02:10:53.010Z,4.80
2018-11-12T02:13:21.244Z,4.97
2018-11-12T02:15:49.489Z,4.47
2018-11-12T02:18:17.703Z,4.00
2018-11-12T02:20:45.937Z,4.70
2018-11-12T02:23:14.200Z,5.23
2018-11-12T02:25:42.438Z,5.00
2018-11-12T02:28:10.691Z,6.00
2018-11-12T02:30:44.177Z,5.77
2018-11-12T02:33:12.453Z,5.80
2018-11-12T02:35:40.621Z,6.30
2018-11-12T02:38:08.876Z,6.20
2018-11-12T02:40:46.718Z,5.40
2018-11-12T02:43:14.961Z,4.97
2018-11-12T02:45:43.179Z,4.53
2018-11-12T02:48:11.445Z,5.00
2018-11-12T02:50:39.681Z,4.30
2018-11-12T02:53:08.022Z,4.27
2018-11-12T02:55:36.294Z,4.57
2018-11-12T02:58:04.545Z,4.27
2018-11-12T03:00:32.759Z,4.60
2018-11-12T03:03:01.002Z,4.40
2018-11-12T03:05:29.209Z,4.33
2018-11-12T03:07:57.447Z,4.73
2018-11-12T03:10:35.554Z,4.83
2018-11-12T03:13:03.799Z,4.67
2018-11-12T03:15:32.062Z,5.17
2018-11-12T03:18:00.304Z,4.37
2018-11-12T03:20:28.526Z,4.20
2018-11-12T03:22:56.749Z,3.93
2018-11-12T03:25:24.967Z,3.57
2018-11-12T03:27:54.279Z,3.60
2018-11-12T03:30:23.258Z,3.80
2018-11-12T03:32:52.489Z,3.33
2018-11-12T03:35:20.717Z,3.03
2018-11-12T03:37:49.822Z,3.20
2018-11-12T03:40:20.181Z,3.60
2018-11-12T03:42:49.038Z,3.67
2018-11-12T03:45:23.486Z,3.23
2018-11-12T03:47:51.689Z,4.10
2018-11-12T03:50:22.378Z,3.20
2018-11-12T03:52:50.635Z,3.23
2018-11-12T03:55:20.058Z,3.70
2018-11-12T03:57:48.276Z,3.53
2018-11-12T04:00:34.095Z,3.67
2018-11-12T04:03:02.294Z,3.60
2018-11-12T04:05:31.533Z,3.80
2018-11-12T04:07:59.773Z,3.70
2018-11-12T04:10:27.998Z,3.77
2018-11-12T04:12:56.243Z,3.90
2018-11-12T04:15:28.026Z,3.63
2018-11-12T04:17:56.279Z,3.47
2018-11-12T04:20:25.238Z,3.70
2018-11-12T04:22:58.593Z,4.30
2018-11-12T04:25:26.826Z,3.90
2018-11-12T04:27:55.042Z,4.20
2018-11-12T04:30:23.273Z,3.97
2018-11-12T04:32:51.570Z,3.60
2018-11-12T04:35:19.782Z,3.63
2018-11-12T04:37:48.019Z,3.97
2018-11-12T04:40:17.386Z,3.53
2018-11-12T04:42:45.953Z,3.60
2018-11-12T04:45:17.323Z,4.07
2018-11-12T04:47:46.286Z,3.90
2018-11-12T04:50:16.525Z,3.87
2018-11-12T04:52:44.765Z,3.87
2018-11-12T04:55:14.268Z,3.93
2018-11-12T04:57:43.299Z,3.80
2018-11-12T05:00:29.142Z,3.73
2018-11-12T05:02:57.396Z,3.13
2018-11-12T05:05:27.088Z,3.80
2018-11-12T05:07:55.327Z,3.23
2018-11-12T05:10:28.357Z,3.07
2018-11-12T05:12:56.695Z,4.00
2018-11-12T05:15:25.628Z,3.47
2018-11-12T05:17:53.842Z,3.30
2018-11-12T05:20:23.519Z,3.17
2018-11-12T05:22:51.731Z,3.17
2018-11-12T05:25:19.973Z,3.80
2018-11-12T05:27:51.653Z,3.13
2018-11-12T05:30:22.352Z,2.60
2018-11-12T05:32:50.618Z,2.67
2018-11-12T05:35:21.128Z,3.17
2018-11-12T05:37:52.638Z,3.03
2018-11-12T05:40:25.090Z,3.17
2018-11-12T05:42:53.494Z,3.20
2018-11-12T05:45:23.150Z,3.57
2018-11-12T05:47:51.392Z,3.67
2018-11-12T05:50:25.951Z,3.80
2018-11-12T05:52:55.522Z,3.70
2018-11-12T05:55:24.965Z,3.47
2018-11-12T05:57:53.210Z,3.77
2018-11-12T06:00:23.666Z,3.60
2018-11-12T06:02:51.890Z,3.90
2018-11-12T06:05:20.174Z,3.50
2018-11-12T06:07:48.426Z,3.43
2018-11-12T06:10:18.957Z,4.13
2018-11-12T06:12:47.393Z,3.60
2018-11-12T06:15:15.799Z,3.77
2018-11-12T06:17:44.873Z,4.00
2018-11-12T06:20:16.426Z,4.37
2018-11-12T06:22:44.709Z,3.90
2018-11-12T06:25:14.317Z,4.40
2018-11-12T06:27:42.560Z,4.70
2018-11-12T06:30:15.348Z,4.60
2018-11-12T06:32:43.603Z,4.87
2018-11-12T06:35:12.738Z,6.37
2018-11-12T06:37:42.647Z,4.90
2018-11-12T06:40:14.210Z,4.93
2018-11-12T06:42:42.534Z,6.47
2018-11-12T06:45:15.034Z,7.20
2018-11-12T06:47:44.814Z,6.93
2018-11-12T06:50:16.326Z,7.23
2018-11-12T06:52:44.670Z,6.77
2018-11-12T06:55:14.019Z,7.27
2018-11-12T06:57:42.528Z,7.63
2018-11-12T07:00:23.900Z,7.50
2018-11-12T07:02:52.303Z,7.17
2018-11-12T07:05:20.790Z,7.73
2018-11-12T07:07:49.029Z,8.40
2018-11-12T07:10:21.332Z,8.00
2018-11-12T07:12:50.377Z,8.23
2018-11-12T07:15:19.872Z,8.20
2018-11-12T07:17:48.110Z,8.40
2018-11-12T07:20:18.193Z,8.90
2018-11-12T07:22:46.513Z,8.67
2018-11-12T07:25:15.752Z,9.20
2018-11-12T07:27:43.881Z,9.13
2018-11-12T07:30:17.590Z,8.60
2018-11-12T07:32:46.509Z,9.03
2018-11-12T07:35:15.526Z,8.40
2018-11-12T07:37:45.118Z,8.90
2018-11-12T07:40:14.111Z,8.23
2018-11-12T07:42:42.622Z,9.33
2018-11-12T07:45:14.775Z,7.50
2018-11-12T07:47:44.160Z,7.27
2018-11-12T07:50:13.777Z,6.70
2018-11-12T07:52:42.128Z,5.43
2018-11-12T07:55:16.391Z,5.13
2018-11-12T07:57:45.472Z,5.13
2018-11-12T08:00:17.951Z,4.93
2018-11-12T08:02:47.040Z,4.83
2018-11-12T08:05:15.435Z,4.50
2018-11-12T08:07:44.407Z,4.73
2018-11-12T08:10:15.954Z,5.13
2018-11-12T08:12:45.163Z,4.80
2018-11-12T08:15:14.665Z,4.40
2018-11-12T08:17:43.310Z,5.03
2018-11-12T08:20:14.713Z,4.17
2018-11-12T08:22:43.804Z,4.30
2018-11-12T08:25:12.393Z,4.20
2018-11-12T08:27:41.167Z,4.60
2018-11-12T08:30:14.083Z,4.00
2018-11-12T08:32:42.838Z,3.60
2018-11-12T08:35:11.274Z,4.13
2018-11-12T08:37:39.508Z,3.97
2018-11-12T08:40:10.644Z,4.37
2018-11-12T08:42:38.815Z,3.80
2018-11-12T08:45:08.356Z,3.30
2018-11-12T08:47:37.097Z,3.93
2018-11-12T08:50:07.763Z,3.50
2018-11-12T08:52:35.919Z,3.67
2018-11-12T08:55:04.377Z,4.27
2018-11-12T08:57:32.585Z,3.93
2018-11-12T09:00:00.827Z,3.57
2018-11-12T09:02:29.092Z,4.03
2018-11-12T09:04:57.347Z,3.30
2018-11-12T09:07:25.622Z,3.37
2018-11-12T09:09:53.894Z,3.00
2018-11-12T09:12:22.093Z,2.60
2018-11-12T09:14:50.331Z,3.30
2018-11-12T09:17:18.594Z,3.37
2018-11-12T09:19:46.874Z,3.10
2018-11-12T09:22:15.128Z,3.03
2018-11-12T09:24:43.468Z,2.90
2018-11-12T09:27:11.714Z,2.57
2018-11-12T09:29:41.154Z,3.17
2018-11-12T09:32:09.290Z,2.87
2018-11-12T09:34:37.515Z,3.20
2018-11-12T09:37:05.749Z,2.63
2018-11-12T09:39:33.987Z,2.77
2018-11-12T09:42:02.221Z,2.90
2018-11-12T09:44:30.445Z,3.10
2018-11-12T09:46:58.686Z,2.90
2018-11-12T09:49:26.989Z,2.70
2018-11-12T09:51:56.286Z,2.73
2018-11-12T09:54:24.682Z,3.40
2018-11-12T09:56:52.823Z,3.20
2018-11-12T09:59:21.130Z,2.80
2018-11-12T10:01:49.573Z,2.67
2018-11-12T10:04:17.859Z,2.60
2018-11-12T10:06:47.789Z,2.90
2018-11-12T10:09:17.646Z,2.50
2018-11-12T10:11:45.054Z,2.33
2018-11-12T10:14:12.867Z,2.50
2018-11-12T10:16:42.467Z,2.33
2018-11-12T10:19:07.757Z,2.40
2018-11-12T10:21:35.997Z,2.50
2018-11-12T10:24:04.241Z,2.30
2018-11-12T10:26:33.698Z,1.90
2018-11-12T10:29:01.923Z,2.20
2018-11-12T10:31:30.209Z,2.57
2018-11-12T10:33:58.466Z,1.97
2018-11-12T10:36:26.686Z,2.30
2018-11-12T10:38:54.969Z,2.23
2018-11-12T10:41:23.195Z,2.70
2018-11-12T10:43:51.485Z,2.37
2018-11-12T10:46:21.725Z,2.47
2018-11-12T10:48:50.039Z,2.17
2018-11-12T10:51:18.323Z,1.93
2018-11-12T10:53:51.430Z,2.27
2018-11-12T10:56:19.582Z,2.53
2018-11-12T10:58:47.815Z,2.07
2018-11-12T11:01:28.057Z,2.13
2018-11-12T11:04:01.646Z,1.87
2018-11-12T11:06:29.885Z,1.47
2018-11-12T11:08:58.100Z,1.60
2018-11-12T11:11:26.322Z,1.87
2018-11-12T11:13:54.529Z,1.70
2018-11-12T11:16:22.752Z,2.07
2018-11-12T11:18:50.983Z,1.70
2018-11-12T11:21:19.208Z,1.63
2018-11-12T11:23:55.162Z,2.23
2018-11-12T11:26:23.394Z,2.20
2018-11-12T11:28:51.691Z,2.30
2018-11-12T11:31:19.944Z,2.03
2018-11-12T11:33:51.350Z,2.40
2018-11-12T11:36:19.582Z,2.07
2018-11-12T11:38:47.835Z,2.10
2018-11-12T11:41:16.838Z,2.20
2018-11-12T11:43:45.122Z,1.83
2018-11-12T11:46:13.502Z,2.00
2018-11-12T11:48:41.686Z,2.10
2018-11-12T11:51:11.923Z,2.53
2018-11-12T11:53:40.155Z,2.10
2018-11-12T11:56:12.168Z,2.13
2018-11-12T11:58:40.385Z,1.97
2018-11-12T12:01:08.760Z,1.83
2018-11-12T12:03:36.970Z,1.87
2018-11-12T12:06:05.470Z,2.27
2018-11-12T12:08:33.715Z,2.03
2018-11-12T12:11:01.948Z,2.47
2018-11-12T12:13:30.275Z,2.07
2018-11-12T12:15:58.486Z,2.10
2018-11-12T12:18:26.732Z,2.13
2018-11-12T12:20:54.953Z,1.77
2018-11-12T12:23:23.195Z,1.53
2018-11-12T12:25:51.550Z,2.27
2018-11-12T12:28:19.661Z,2.03
2018-11-12T12:30:47.910Z,1.60
2018-11-12T12:33:16.130Z,1.87
2018-11-12T12:35:44.409Z,1.87
2018-11-12T12:38:12.590Z,1.77
2018-11-12T12:40:40.814Z,1.97
2018-11-12T12:43:09.087Z,1.40
2018-11-12T12:45:37.484Z,1.90
2018-11-12T12:48:10.875Z,2.00
2018-11-12T12:50:39.131Z,1.97
2018-11-12T12:53:07.362Z,1.53
2018-11-12T12:55:35.633Z,1.83
2018-11-12T12:58:03.892Z,1.77
2018-11-12T13:00:32.118Z,1.40
2018-11-12T13:03:00.337Z,1.40
2018-11-12T13:05:28.572Z,1.73
2018-11-12T13:07:56.812Z,1.30
2018-11-12T13:10:25.414Z,1.40
2018-11-12T13:12:53.677Z,1.73
2018-11-12T13:15:22.181Z,1.37
2018-11-12T13:17:51.269Z,1.57
2018-11-12T13:20:20.774Z,1.23
2018-11-12T13:22:49.263Z,1.20
2018-11-12T13:25:17.737Z,1.37
2018-11-12T13:27:46.540Z,1.40
2018-11-12T13:30:16.249Z,1.40
2018-11-12T13:32:45.222Z,2.03
2018-11-12T13:35:15.049Z,1.90
2018-11-12T13:37:43.303Z,1.33
2018-11-12T13:40:14.374Z,1.93
2018-11-12T13:42:44.157Z,1.40
2018-11-12T13:45:12.418Z,1.47
2018-11-12T13:47:44.719Z,1.43
2018-11-12T13:50:14.649Z,1.23
2018-11-12T13:52:42.927Z,1.67
2018-11-12T13:55:12.329Z,1.43
2018-11-12T13:57:40.540Z,2.03
2018-11-12T14:00:10.561Z,1.70
2018-11-12T14:02:38.799Z,2.03
2018-11-12T14:05:08.805Z,1.77
2018-11-12T14:07:42.385Z,1.20
2018-11-12T14:10:15.277Z,0.90
2018-11-12T14:12:45.169Z,1.50
2018-11-12T14:15:21.357Z,2.00
2018-11-12T14:17:50.133Z,1.33
2018-11-12T14:20:18.552Z,2.67
2018-11-12T14:22:46.741Z,2.20
2018-11-12T14:25:16.201Z,2.60
2018-11-12T14:27:46.284Z,2.50
2018-11-12T14:30:15.963Z,2.63
2018-11-12T14:32:44.270Z,2.27
2018-11-12T14:35:13.332Z,1.97
2018-11-12T14:37:42.654Z,2.90
2018-11-12T14:40:12.237Z,3.63
2018-11-12T14:42:41.011Z,4.00
2018-11-12T14:45:11.453Z,3.97
2018-11-12T14:47:39.656Z,4.20
2018-11-12T14:50:08.023Z,4.50
2018-11-12T14:52:36.343Z,4.40
2018-11-12T14:55:05.103Z,4.90
2018-11-12T14:57:33.266Z,4.67
2018-11-12T15:00:01.527Z,5.67
2018-11-12T15:02:29.850Z,6.37
2018-11-12T15:04:58.210Z,6.10
2018-11-12T15:07:26.446Z,6.70
2018-11-12T15:09:54.670Z,6.50
2018-11-12T15:12:22.946Z,6.83
2018-11-12T15:14:51.306Z,6.30
2018-11-12T15:17:19.424Z,5.87
2018-11-12T15:19:47.634Z,6.93
2018-11-12T15:22:15.870Z,6.43
2018-11-12T15:24:44.100Z,6.87
2018-11-12T15:27:12.317Z,6.10
2018-11-12T15:29:40.535Z,7.37
2018-11-12T15:32:08.898Z,7.87
2018-11-12T15:34:37.878Z,7.30
2018-11-12T15:37:06.334Z,7.50
2018-11-12T15:39:34.382Z,7.90
2018-11-12T15:42:02.646Z,8.37
2018-11-12T15:44:30.866Z,7.93
2018-11-12T15:46:59.077Z,7.57
2018-11-12T15:49:27.322Z,8.20
2018-11-12T15:51:55.595Z,8.47
2018-11-12T15:54:29.746Z,8.30
2018-11-12T15:56:59.058Z,9.10
2018-11-12T15:59:30.458Z,8.93
2018-11-12T16:01:58.797Z,8.33
2018-11-12T16:04:27.029Z,9.30
2018-11-12T16:06:55.349Z,9.30
2018-11-12T16:09:23.578Z,9.17
2018-11-12T16:11:51.860Z,10.87
2018-11-12T16:14:20.037Z,10.80
2018-11-12T16:16:48.270Z,11.17
2018-11-12T16:19:16.539Z,11.17
2018-11-12T16:21:45.805Z,11.33
2018-11-12T16:24:14.789Z,12.07
2018-11-12T16:26:43.680Z,12.30
2018-11-12T16:29:11.975Z,11.80
2018-11-12T16:31:43.333Z,12.97
2018-11-12T16:34:15.054Z,14.03
2018-11-12T16:36:43.262Z,14.27
2018-11-12T16:39:12.279Z,13.63
2018-11-12T16:41:40.761Z,13.83
2018-11-12T16:44:09.780Z,14.43
2018-11-12T16:46:45.764Z,13.47
2018-11-12T16:49:14.191Z,12.97
2018-11-12T16:51:42.510Z,13.03
2018-11-12T16:54:15.195Z,12.53
2018-11-12T16:56:43.423Z,13.60
2018-11-12T16:59:11.635Z,12.50
2018-11-12T17:01:50.903Z,13.67
2018-11-12T17:04:19.142Z,14.63
2018-11-12T17:06:47.366Z,15.33
2018-11-12T17:09:15.616Z,15.27
2018-11-12T17:11:43.917Z,14.50
2018-11-12T17:14:14.127Z,13.77
2018-11-12T17:16:42.357Z,14.77
2018-11-12T17:19:10.582Z,14.87
2018-11-12T17:21:38.808Z,14.47
2018-11-12T17:24:08.200Z,13.63
2018-11-12T17:26:36.426Z,13.73
2018-11-12T17:29:04.714Z,14.20
2018-11-12T17:31:32.918Z,12.67
2018-11-12T17:34:01.135Z,13.33
2018-11-12T17:36:29.386Z,13.10
2018-11-12T17:38:57.587Z,12.40
2018-11-12T17:41:25.810Z,12.47
2018-11-12T17:43:54.188Z,12.10
2018-11-12T17:46:22.405Z,11.10
2018-11-12T17:48:50.642Z,13.10
2018-11-12T17:51:18.831Z,11.90
2018-11-12T17:53:47.033Z,12.60
2018-11-12T17:56:15.250Z,11.10
2018-11-12T17:58:43.454Z,12.20
2018-11-12T18:01:11.694Z,11.60
2018-11-12T18:03:39.943Z,11.93
2018-11-12T18:06:08.671Z,10.90
2018-11-12T18:08:37.907Z,10.03
2018-11-12T18:11:06.154Z,10.57
2018-11-12T18:13:34.433Z,11.03
2018-11-12T18:16:02.619Z,10.50
2018-11-12T18:18:30.898Z,10.73
2018-11-12T18:20:59.144Z,11.50
2018-11-12T18:23:27.370Z,10.70
2018-11-12T18:25:55.578Z,10.50
2018-11-12T18:28:23.807Z,9.83
2018-11-12T18:30:52.102Z,10.23
2018-11-12T18:33:20.315Z,11.17
2018-11-12T18:35:48.552Z,11.13
2018-11-12T18:38:16.795Z,10.50
2018-11-12T18:40:45.043Z,10.67
2018-11-12T18:43:15.492Z,11.03
2018-11-12T18:45:43.728Z,10.43
2018-11-12T18:48:11.947Z,11.00
2018-11-12T18:50:40.263Z,11.10
2018-11-12T18:53:08.518Z,10.87
2018-11-12T18:55:36.747Z,11.87
2018-11-12T18:58:05.174Z,10.80
2018-11-12T19:00:33.482Z,10.70
2018-11-12T19:03:01.713Z,11.40
2018-11-12T19:05:30.089Z,11.00
2018-11-12T19:08:00.861Z,11.80
2018-11-12T19:10:30.453Z,11.63
2018-11-12T19:12:58.707Z,12.33
2018-11-12T19:15:28.590Z,12.50
2018-11-12T19:17:58.539Z,11.00
2018-11-12T19:20:30.987Z,11.57
2018-11-12T19:22:59.227Z,12.50
2018-11-12T19:25:27.438Z,11.37
2018-11-12T19:27:55.686Z,10.87
2018-11-12T19:30:25.226Z,11.03
2018-11-12T19:32:53.673Z,10.87
2018-11-12T19:35:23.301Z,11.07
2018-11-12T19:37:51.617Z,10.63
2018-11-12T19:40:21.155Z,11.47
2018-11-12T19:42:50.443Z,10.40
2018-11-12T19:45:18.723Z,11.83
2018-11-12T19:47:48.450Z,10.83
2018-11-12T19:53:22.835Z,11.33
2018-11-12T19:55:51.076Z,10.23
2018-11-12T19:58:19.833Z,10.73
2018-11-12T20:00:48.060Z,11.50
2018-11-12T20:03:16.321Z,10.47
2018-11-12T20:05:44.562Z,9.60
2018-11-12T20:08:12.871Z,10.13
2018-11-12T20:10:53.435Z,10.73
2018-11-12T20:13:21.694Z,11.53
2018-11-12T20:15:50.049Z,10.57
2018-11-12T20:18:18.206Z,10.87
2018-11-12T20:20:46.453Z,10.57
2018-11-12T20:23:14.718Z,11.87
2018-11-12T20:25:42.978Z,11.20
2018-11-12T20:28:20.497Z,11.60
2018-11-12T20:30:49.793Z,10.30
2018-11-12T20:33:19.475Z,10.70
2018-11-12T20:35:47.848Z,10.23
2018-11-12T20:38:16.094Z,12.33
2018-11-12T20:40:44.326Z,11.47
2018-11-12T20:43:12.582Z,12.03
2018-11-12T20:45:40.892Z,11.37
2018-11-12T20:48:09.276Z,11.37
2018-11-12T20:50:37.358Z,10.87
2018-11-12T20:53:07.638Z,11.37
2018-11-12T20:55:35.992Z,11.13
2018-11-12T20:58:04.290Z,12.80
2018-11-12T21:00:32.536Z,11.93
2018-11-12T21:03:01.024Z,11.63
2018-11-12T21:05:30.564Z,11.70
2018-11-12T21:08:07.211Z,11.87
2018-11-12T21:10:35.442Z,11.87
2018-11-12T21:13:03.930Z,13.73
2018-11-12T21:15:32.171Z,12.47
2018-11-12T21:18:00.461Z,11.43
2018-11-12T21:20:28.820Z,12.43
2018-11-12T21:22:57.094Z,13.20
2018-11-12T21:25:28.058Z,12.47
2018-11-12T21:27:56.358Z,13.43
2018-11-12T21:30:25.901Z,12.63
2018-11-12T21:32:56.289Z,14.13
2018-11-12T21:35:25.767Z,12.93
2018-11-12T21:37:55.522Z,14.10
2018-11-12T21:40:24.998Z,13.00
2018-11-12T21:42:53.334Z,15.27
2018-11-12T21:45:23.073Z,13.67
2018-11-12T21:47:51.328Z,13.30
2018-11-12T21:50:20.541Z,14.13
2018-11-12T21:52:50.945Z,13.97
2018-11-12T21:55:19.218Z,14.63
2018-11-12T21:57:47.455Z,15.87
2018-11-12T22:00:20.856Z,17.07
2018-11-12T22:02:50.607Z,15.30
2018-11-12T22:05:18.902Z,16.27
2018-11-12T22:07:47.185Z,15.93
2018-11-12T22:10:16.211Z,16.67
2018-11-12T22:12:45.818Z,15.57
2018-11-12T22:15:14.142Z,13.80
2018-11-12T22:17:42.371Z,12.63
2018-11-12T22:20:12.486Z,13.50
2018-11-12T22:22:41.591Z,13.13
2018-11-12T22:25:11.807Z,13.87
2018-11-12T22:27:40.661Z,12.47
2018-11-12T22:30:10.810Z,13.43
2018-11-12T22:32:39.096Z,14.10
2018-11-12T22:35:07.987Z,13.60
2018-11-12T22:37:36.733Z,15.57
2018-11-12T22:40:06.387Z,15.67
2018-11-12T22:42:34.639Z,15.67
2018-11-12T22:45:02.896Z,15.83
2018-11-12T22:47:31.122Z,16.37
2018-11-12T22:49:59.342Z,15.70
2018-11-12T22:52:27.577Z,15.50
2018-11-12T22:54:55.827Z,14.40
2018-11-12T22:57:24.088Z,15.27
2018-11-12T22:59:52.390Z,14.60
2018-11-12T23:02:20.535Z,15.70
2018-11-12T23:04:48.750Z,15.70
2018-11-12T23:07:16.991Z,15.60
2018-11-12T23:09:45.210Z,16.37
2018-11-12T23:12:13.474Z,17.77
2018-11-12T23:14:41.654Z,19.17
2018-11-12T23:17:09.913Z,17.17
2018-11-12T23:19:38.182Z,16.50
2018-11-12T23:22:06.381Z,16.03
2018-11-12T23:24:34.610Z,15.20
2018-11-12T23:27:03.090Z,16.70
2018-11-12T23:29:31.313Z,16.93
2018-11-12T23:32:00.429Z,15.67
2018-11-12T23:34:28.644Z,17.00
2018-11-12T23:36:56.882Z,16.67
2018-11-12T23:39:25.136Z,16.97
2018-11-12T23:41:53.357Z,15.87
2018-11-12T23:44:21.621Z,16.67
2018-11-12T23:46:49.936Z,17.50
2018-11-12T23:49:18.124Z,17.30
2018-11-12T23:51:46.367Z,17.17
2018-11-12T23:54:14.585Z,17.77
2018-11-12T23:56:42.824Z,18.37
2018-11-12T23:59:11.052Z,18.13
